createdAt,value
2023-08-12T00:00:58.965Z,7.53
2023-08-12T00:03:25.916Z,6.27
2023-08-12T00:05:53.754Z,6.28
2023-08-12T00:08:21.207Z,6.75
2023-08-12T00:10:48.480Z,6.75
2023-08-12T00:13:18.994Z,6.20
2023-08-12T00:15:47.212Z,6.20
2023-08-12T00:18:14.648Z,6.75
2023-08-12T00:20:41.983Z,6.55
2023-08-12T00:23:09.602Z,6.20
2023-08-12T00:25:37.041Z,7.22
2023-08-12T00:28:04.408Z,6.43
2023-08-12T00:30:31.714Z,7.45
2023-08-12T00:32:58.597Z,7.57
2023-08-12T00:35:25.749Z,7.65
2023-08-12T00:37:52.746Z,7.65
2023-08-12T00:40:19.724Z,7.33
2023-08-12T00:42:48.057Z,8.40
2023-08-12T00:45:15.154Z,8.02
2023-08-12T00:47:43.231Z,7.15
2023-08-12T00:50:14.743Z,8.48
2023-08-12T00:52:41.921Z,9.83
2023-08-12T00:55:09.327Z,8.18
2023-08-12T00:57:36.704Z,8.40
2023-08-12T01:00:05.299Z,8.48
2023-08-12T01:02:33.239Z,7.93
2023-08-12T01:05:00.665Z,7.23
2023-08-12T01:07:27.940Z,6.90
2023-08-12T01:09:54.974Z,7.30
2023-08-12T01:12:33.007Z,7.45
2023-08-12T01:15:11.655Z,8.30
2023-08-12T01:17:41.518Z,7.00
2023-08-12T01:20:14.066Z,6.88
2023-08-12T01:22:43.175Z,6.53
2023-08-12T01:25:10.901Z,7.15
2023-08-12T01:27:38.606Z,6.57
2023-08-12T01:30:07.269Z,6.63
2023-08-12T01:32:54.101Z,6.90
2023-08-12T01:35:26.429Z,7.10
2023-08-12T01:37:54.973Z,6.57
2023-08-12T01:40:23.346Z,6.60
2023-08-12T01:42:50.700Z,7.37
2023-08-12T01:45:19.963Z,6.82
2023-08-12T01:47:48.960Z,7.28
2023-08-12T01:50:16.547Z,7.68
2023-08-12T01:52:43.845Z,8.07
2023-08-12T01:55:11.369Z,7.23
2023-08-12T01:57:38.718Z,7.22
2023-08-12T02:00:07.410Z,8.98
2023-08-12T02:02:43.734Z,10.15
2023-08-12T02:05:10.728Z,10.93
2023-08-12T02:07:38.247Z,10.87
2023-08-12T02:10:05.530Z,12.82
2023-08-12T02:12:32.686Z,13.20
2023-08-12T02:14:59.987Z,12.10
2023-08-12T02:17:26.979Z,12.98
2023-08-12T02:19:54.328Z,11.87
2023-08-12T02:22:21.585Z,11.88
2023-08-12T02:24:48.831Z,13.88
2023-08-12T02:27:15.809Z,13.35
2023-08-12T02:29:43.122Z,13.80
2023-08-12T02:32:10.150Z,13.40
2023-08-12T02:34:37.450Z,13.80
2023-08-12T02:37:04.372Z,14.32
2023-08-12T02:39:31.771Z,12.63
2023-08-12T02:41:58.644Z,13.45
2023-08-12T02:44:25.679Z,13.20
2023-08-12T02:46:52.571Z,13.18
2023-08-12T02:49:19.576Z,14.70
2023-08-12T02:51:46.429Z,13.90
2023-08-12T02:54:13.389Z,13.05
2023-08-12T02:56:41.164Z,14.03
2023-08-12T02:59:08.169Z,12.68
2023-08-12T03:01:35.124Z,14.95
2023-08-12T03:04:02.449Z,12.38
2023-08-12T03:06:29.416Z,13.40
2023-08-12T03:08:56.478Z,13.13
2023-08-12T03:11:24.154Z,14.15
2023-08-12T03:13:51.586Z,13.18
2023-08-12T03:16:19.307Z,13.70
2023-08-12T03:18:48.312Z,13.63
2023-08-12T03:21:15.615Z,13.77
2023-08-12T03:23:43.215Z,13.50
2023-08-12T03:26:12.153Z,15.00
2023-08-12T03:28:39.573Z,12.80
2023-08-12T03:31:08.393Z,14.48
2023-08-12T03:33:36.597Z,12.73
2023-08-12T03:36:05.079Z,13.70
2023-08-12T03:38:32.737Z,13.45
2023-08-12T03:41:00.116Z,13.32
2023-08-12T03:43:27.741Z,13.10
2023-08-12T03:45:54.825Z,12.10
2023-08-12T03:48:22.544Z,12.65
2023-08-12T03:50:49.596Z,10.85
2023-08-12T03:53:17.214Z,11.90
2023-08-12T03:55:44.612Z,11.77
2023-08-12T03:58:13.822Z,12.20
2023-08-12T04:00:44.450Z,12.18
2023-08-12T04:03:13.947Z,11.48
2023-08-12T04:05:53.276Z,11.13
2023-08-12T04:08:22.190Z,11.88
2023-08-12T04:10:49.670Z,12.73
2023-08-12T04:13:17.007Z,12.65
2023-08-12T04:15:44.636Z,12.40
2023-08-12T04:18:11.917Z,12.23
2023-08-12T04:20:40.033Z,13.07
2023-08-12T04:23:07.755Z,13.07
2023-08-12T04:25:35.760Z,12.38
2023-08-12T04:28:02.613Z,12.98
2023-08-12T04:30:31.862Z,13.20
2023-08-12T04:32:58.809Z,12.90
2023-08-12T04:35:28.850Z,13.43
2023-08-12T04:37:56.898Z,12.35
2023-08-12T04:40:25.403Z,12.02
2023-08-12T04:42:52.453Z,11.93
2023-08-12T04:45:19.790Z,11.60
2023-08-12T04:47:47.640Z,10.70
2023-08-12T04:50:17.705Z,11.32
2023-08-12T04:52:44.987Z,11.80
2023-08-12T04:55:12.890Z,11.57
2023-08-12T04:57:40.156Z,11.05
2023-08-12T05:00:10.727Z,11.70
2023-08-12T05:02:37.920Z,11.18
2023-08-12T05:05:06.211Z,10.82
2023-08-12T05:07:35.068Z,11.40
2023-08-12T05:10:03.478Z,10.43
2023-08-12T05:12:32.293Z,11.60
2023-08-12T05:14:59.379Z,12.60
2023-08-12T05:17:28.068Z,12.38
2023-08-12T05:19:55.450Z,12.32
2023-08-12T05:22:22.934Z,12.68
2023-08-12T05:24:50.460Z,11.60
2023-08-12T05:27:17.345Z,13.18
2023-08-12T05:29:44.613Z,12.75
2023-08-12T05:32:11.713Z,12.57
2023-08-12T05:34:38.757Z,12.95
2023-08-12T05:37:06.084Z,12.27
2023-08-12T05:39:32.998Z,11.85
2023-08-12T05:42:00.324Z,12.30
2023-08-12T05:44:27.177Z,11.60
2023-08-12T05:46:54.537Z,12.55
2023-08-12T05:49:21.495Z,12.20
2023-08-12T05:51:48.367Z,11.23
2023-08-12T05:54:15.236Z,11.82
2023-08-12T05:56:42.543Z,12.13
2023-08-12T05:59:10.005Z,11.18
2023-08-12T06:01:37.025Z,11.23
2023-08-12T06:04:04.532Z,11.77
2023-08-12T06:06:31.795Z,10.75
2023-08-12T06:08:59.082Z,11.55
2023-08-12T06:11:26.503Z,11.38
2023-08-12T06:13:53.685Z,10.47
2023-08-12T06:16:21.025Z,10.00
2023-08-12T06:18:48.477Z,10.45
2023-08-12T06:21:15.318Z,10.55
2023-08-12T06:23:42.795Z,9.27
2023-08-12T06:26:09.930Z,9.50
2023-08-12T06:28:36.838Z,9.45
2023-08-12T06:31:04.138Z,10.13
2023-08-12T06:33:31.456Z,10.35
2023-08-12T06:35:58.818Z,10.15
2023-08-12T06:38:25.788Z,9.53
2023-08-12T06:40:53.149Z,9.45
2023-08-12T06:43:20.427Z,9.20
2023-08-12T06:45:47.397Z,8.90
2023-08-12T06:48:14.469Z,9.10
2023-08-12T06:50:41.900Z,8.63
2023-08-12T06:53:08.830Z,8.75
2023-08-12T06:55:36.223Z,8.45
2023-08-12T06:58:03.599Z,7.65
2023-08-12T07:00:30.517Z,7.55
2023-08-12T07:02:57.942Z,8.30
2023-08-12T07:05:24.847Z,8.10
2023-08-12T07:07:52.138Z,7.75
2023-08-12T07:10:21.575Z,7.85
2023-08-12T07:12:50.382Z,8.40
2023-08-12T07:15:19.459Z,8.03
2023-08-12T07:17:46.799Z,7.65
2023-08-12T07:20:13.687Z,7.57
2023-08-12T07:22:41.028Z,7.72
2023-08-12T07:25:08.578Z,7.70
2023-08-12T07:27:35.521Z,7.60
2023-08-12T07:30:02.888Z,8.70
2023-08-12T07:32:30.215Z,7.47
2023-08-12T07:34:57.602Z,7.15
2023-08-12T07:37:24.526Z,6.60
2023-08-12T07:39:51.588Z,6.03
2023-08-12T07:42:18.737Z,5.22
2023-08-12T07:44:45.614Z,5.32
2023-08-12T07:47:12.798Z,5.78
2023-08-12T07:49:40.293Z,5.35
2023-08-12T07:52:07.654Z,5.20
2023-08-12T07:54:34.939Z,5.30
2023-08-12T07:57:01.869Z,5.85
2023-08-12T07:59:29.328Z,5.43
2023-08-12T08:01:56.586Z,5.43
2023-08-12T08:04:23.927Z,5.20
2023-08-12T08:06:51.757Z,6.07
2023-08-12T08:09:19.161Z,4.93
2023-08-12T08:11:46.122Z,5.30
2023-08-12T08:14:13.408Z,4.88
2023-08-12T08:16:42.963Z,4.93
2023-08-12T08:19:13.672Z,4.35
2023-08-12T08:21:41.603Z,3.60
2023-08-12T08:24:12.304Z,3.53
2023-08-12T08:26:42.228Z,3.47
2023-08-12T08:29:10.192Z,3.40
2023-08-12T08:31:37.071Z,3.10
2023-08-12T08:34:04.685Z,3.50
2023-08-12T08:36:32.137Z,2.90
2023-08-12T08:38:59.008Z,3.40
2023-08-12T08:41:27.400Z,2.90
2023-08-12T08:44:00.721Z,2.97
2023-08-12T08:46:28.093Z,2.80
2023-08-12T08:48:56.284Z,2.90
2023-08-12T08:51:23.475Z,2.38
2023-08-12T08:53:52.457Z,2.13
2023-08-12T08:56:20.015Z,2.13
2023-08-12T08:58:47.752Z,2.55
2023-08-12T09:01:16.607Z,1.80
2023-08-12T09:03:44.374Z,2.17
2023-08-12T09:06:12.060Z,2.20
2023-08-12T09:08:44.630Z,2.78
2023-08-12T09:11:14.578Z,2.22
2023-08-12T09:13:41.441Z,2.65
2023-08-12T09:16:08.819Z,2.80
2023-08-12T09:18:36.024Z,2.57
2023-08-12T09:21:03.441Z,2.20
2023-08-12T09:23:35.840Z,2.90
2023-08-12T09:26:03.430Z,3.20
2023-08-12T09:28:30.494Z,2.75
2023-08-12T09:30:57.456Z,4.13
2023-08-12T09:33:27.631Z,3.03
2023-08-12T09:35:55.919Z,2.80
2023-08-12T09:38:22.853Z,2.35
2023-08-12T09:40:50.330Z,2.88
2023-08-12T09:43:17.770Z,2.53
2023-08-12T09:45:46.704Z,2.40
2023-08-12T09:48:15.641Z,2.30
2023-08-12T09:50:44.850Z,3.05
2023-08-12T09:53:12.189Z,2.55
2023-08-12T09:55:40.954Z,2.50
2023-08-12T09:58:10.740Z,2.47
2023-08-12T10:00:37.923Z,2.40
2023-08-12T10:03:06.491Z,2.38
2023-08-12T10:05:35.401Z,2.33
2023-08-12T10:08:05.007Z,2.47
2023-08-12T10:10:33.878Z,2.72
2023-08-12T10:13:00.790Z,2.53
2023-08-12T10:15:27.837Z,2.63
2023-08-12T10:17:57.221Z,2.80
2023-08-12T10:20:25.751Z,2.67
2023-08-12T10:22:53.283Z,2.67
2023-08-12T10:25:23.648Z,2.65
2023-08-12T10:27:51.299Z,2.58
2023-08-12T10:30:18.353Z,2.70
2023-08-12T10:32:47.515Z,2.23
2023-08-12T10:35:14.596Z,2.40
2023-08-12T10:37:41.661Z,3.10
2023-08-12T10:40:22.714Z,2.63
2023-08-12T10:42:51.077Z,2.70
2023-08-12T10:45:19.854Z,2.50
2023-08-12T10:48:10.024Z,2.40
2023-08-12T10:50:36.976Z,2.70
2023-08-12T10:53:33.090Z,2.28
2023-08-12T10:56:06.374Z,3.10
2023-08-12T10:58:46.963Z,2.43
2023-08-12T11:01:20.264Z,2.40
2023-08-12T11:03:49.458Z,2.80
2023-08-12T11:06:16.434Z,2.83
2023-08-12T11:08:53.785Z,2.78
2023-08-12T11:11:24.727Z,2.80
2023-08-12T11:13:57.323Z,2.53
2023-08-12T11:16:38.515Z,2.70
2023-08-12T11:19:06.939Z,2.50
2023-08-12T11:21:37.459Z,2.70
2023-08-12T11:24:04.876Z,2.50
2023-08-12T11:26:31.780Z,2.75
2023-08-12T11:28:58.744Z,2.70
2023-08-12T11:31:26.939Z,2.70
2023-08-12T11:33:55.009Z,2.70
2023-08-12T11:36:21.916Z,2.50
2023-08-12T11:38:48.805Z,2.47
2023-08-12T11:41:19.095Z,2.30
2023-08-12T11:43:46.027Z,2.20
2023-08-12T11:46:16.569Z,2.25
2023-08-12T11:48:44.990Z,2.13
2023-08-12T11:51:12.044Z,2.83
2023-08-12T11:53:39.115Z,2.30
2023-08-12T11:56:06.581Z,2.35
2023-08-12T11:58:51.282Z,2.65
2023-08-12T12:01:19.835Z,2.30
2023-08-12T12:03:51.113Z,2.70
2023-08-12T12:06:18.370Z,2.40
2023-08-12T12:08:48.431Z,2.67
2023-08-12T12:11:16.616Z,2.50
2023-08-12T12:13:43.538Z,2.33
2023-08-12T12:16:13.531Z,2.35
2023-08-12T12:18:40.675Z,2.17
2023-08-12T12:21:07.508Z,2.30
2023-08-12T12:23:35.408Z,2.50
2023-08-12T12:26:03.787Z,2.40
2023-08-12T12:28:31.141Z,2.60
2023-08-12T12:30:58.351Z,2.40
2023-08-12T12:33:25.362Z,2.20
2023-08-12T12:35:58.665Z,2.28
2023-08-12T12:38:28.073Z,2.30
2023-08-12T12:40:55.087Z,2.50
2023-08-12T12:43:22.178Z,2.55
2023-08-12T12:45:49.130Z,2.10
2023-08-12T12:48:15.998Z,2.60
2023-08-12T12:50:42.868Z,2.40
2023-08-12T12:53:09.995Z,2.10
2023-08-12T12:55:36.955Z,2.80
2023-08-12T12:58:03.956Z,2.70
2023-08-12T13:00:30.818Z,2.92
2023-08-12T13:02:57.763Z,2.50
2023-08-12T13:05:24.825Z,2.67
2023-08-12T13:07:51.891Z,2.72
2023-08-12T13:10:18.748Z,2.33
2023-08-12T13:12:45.665Z,2.60
2023-08-12T13:15:12.970Z,2.60
2023-08-12T13:17:39.955Z,2.50
2023-08-12T13:20:07.741Z,2.10
2023-08-12T13:22:34.811Z,2.90
2023-08-12T13:25:02.083Z,2.47
2023-08-12T13:27:30.192Z,2.73
2023-08-12T13:29:57.148Z,2.50
2023-08-12T13:32:24.109Z,2.72
2023-08-12T13:34:51.077Z,2.60
2023-08-12T13:37:18.094Z,3.17
2023-08-12T13:39:44.977Z,2.73
2023-08-12T13:42:11.936Z,2.38
2023-08-12T13:44:39.141Z,2.80
2023-08-12T13:47:06.020Z,2.67
2023-08-12T13:49:33.028Z,2.50
2023-08-12T13:52:02.790Z,2.90
2023-08-12T13:54:29.741Z,2.58
2023-08-12T13:56:56.678Z,3.45
2023-08-12T13:59:23.547Z,3.13
2023-08-12T14:01:50.464Z,2.92
2023-08-12T14:04:17.361Z,3.00
2023-08-12T14:06:44.824Z,2.97
2023-08-12T14:09:14.867Z,2.90
2023-08-12T14:11:41.836Z,2.72
2023-08-12T14:14:08.723Z,2.50
2023-08-12T14:16:36.665Z,2.83
2023-08-12T14:19:03.825Z,2.80
2023-08-12T14:21:30.693Z,3.03
2023-08-12T14:23:57.572Z,3.10
2023-08-12T14:26:24.532Z,3.20
2023-08-12T14:28:51.432Z,3.43
2023-08-12T14:31:18.413Z,2.95
2023-08-12T14:33:45.391Z,3.15
2023-08-12T14:36:12.243Z,2.83
2023-08-12T14:38:39.133Z,3.03
2023-08-12T14:41:06.234Z,2.50
2023-08-12T14:43:33.126Z,3.03
2023-08-12T14:46:00.050Z,2.67
2023-08-12T14:48:27.110Z,2.80
2023-08-12T14:50:53.968Z,2.80
2023-08-12T14:53:21.002Z,3.43
2023-08-12T14:55:49.195Z,2.70
2023-08-12T14:58:16.195Z,2.80
2023-08-12T15:00:43.149Z,3.10
2023-08-12T15:03:12.592Z,2.83
2023-08-12T15:05:39.656Z,2.37
2023-08-12T15:08:06.716Z,2.70
2023-08-12T15:10:34.106Z,2.75
2023-08-12T15:13:01.224Z,2.92
2023-08-12T15:15:28.146Z,2.97
2023-08-12T15:17:55.097Z,2.50
2023-08-12T15:20:22.075Z,2.67
2023-08-12T15:22:48.940Z,2.60
2023-08-12T15:25:15.911Z,3.20
2023-08-12T15:27:42.947Z,2.80
2023-08-12T15:30:11.404Z,3.40
2023-08-12T15:32:40.730Z,3.30
2023-08-12T15:35:10.866Z,2.90
2023-08-12T15:37:37.779Z,3.25
2023-08-12T15:40:05.252Z,3.28
2023-08-12T15:42:33.841Z,3.33
2023-08-12T15:45:02.588Z,3.08
2023-08-12T15:47:29.756Z,2.83
2023-08-12T15:49:56.967Z,3.28
2023-08-12T15:52:24.074Z,3.33
2023-08-12T15:54:51.004Z,3.00
2023-08-12T15:57:17.851Z,3.28
2023-08-12T15:59:45.703Z,3.53
2023-08-12T16:02:12.646Z,3.00
2023-08-12T16:04:39.614Z,2.65
2023-08-12T16:07:06.517Z,2.77
2023-08-12T16:09:33.426Z,3.20
2023-08-12T16:12:00.422Z,2.60
2023-08-12T16:14:27.314Z,2.80
2023-08-12T16:16:54.164Z,2.60
2023-08-12T16:19:21.405Z,2.50
2023-08-12T16:21:48.354Z,2.90
2023-08-12T16:24:15.219Z,3.40
2023-08-12T16:26:42.066Z,2.95
2023-08-12T16:29:08.967Z,3.67
2023-08-12T16:31:38.808Z,3.33
2023-08-12T16:34:07.113Z,2.63
2023-08-12T16:36:34.042Z,3.00
2023-08-12T16:39:00.879Z,3.25
2023-08-12T16:41:28.045Z,3.20
2023-08-12T16:43:55.059Z,3.43
2023-08-12T16:46:23.735Z,2.90
2023-08-12T16:48:50.684Z,2.60
2023-08-12T16:51:17.639Z,2.58
2023-08-12T16:53:45.305Z,3.53
2023-08-12T16:56:13.056Z,3.13
2023-08-12T16:58:41.626Z,3.55
2023-08-12T17:01:08.658Z,2.90
2023-08-12T17:03:35.643Z,2.38
2023-08-12T17:06:02.533Z,2.55
2023-08-12T17:08:30.218Z,2.63
2023-08-12T17:10:57.144Z,2.40
2023-08-12T17:13:24.030Z,2.90
2023-08-12T17:15:50.896Z,2.58
2023-08-12T17:18:17.796Z,2.10
2023-08-12T17:20:44.674Z,2.40
2023-08-12T17:23:11.522Z,2.55
2023-08-12T17:25:38.381Z,2.40
2023-08-12T17:28:05.698Z,2.35
2023-08-12T17:30:35.128Z,2.80
2023-08-12T17:33:02.865Z,2.33
2023-08-12T17:35:32.016Z,2.50
2023-08-12T17:38:00.636Z,2.25
2023-08-12T17:40:27.704Z,2.30
2023-08-12T17:42:54.761Z,2.50
2023-08-12T17:45:21.746Z,2.43
2023-08-12T17:47:59.935Z,2.30
2023-08-12T17:50:27.979Z,3.03
2023-08-12T17:52:55.177Z,2.33
2023-08-12T17:55:22.300Z,2.90
2023-08-12T17:57:49.400Z,2.43
2023-08-12T18:00:16.662Z,2.50
2023-08-12T18:02:44.724Z,3.15
2023-08-12T18:05:11.822Z,2.70
2023-08-12T18:07:38.725Z,2.70
2023-08-12T18:10:06.296Z,3.03
2023-08-12T18:12:33.415Z,3.10
2023-08-12T18:15:01.052Z,2.80
2023-08-12T18:17:28.483Z,2.85
2023-08-12T18:19:56.019Z,3.45
2023-08-12T18:22:23.089Z,3.00
2023-08-12T18:24:50.022Z,2.85
2023-08-12T18:27:17.014Z,4.07
2023-08-12T18:29:45.618Z,2.80
2023-08-12T18:32:13.161Z,2.97
2023-08-12T18:34:40.634Z,2.73
2023-08-12T18:37:07.536Z,2.72
2023-08-12T18:39:34.454Z,2.90
2023-08-12T18:42:01.420Z,2.80
2023-08-12T18:44:28.398Z,2.90
2023-08-12T18:46:55.718Z,2.47
2023-08-12T18:49:22.634Z,3.33
2023-08-12T18:51:49.582Z,3.70
2023-08-12T18:54:17.072Z,3.22
2023-08-12T18:56:44.331Z,2.88
2023-08-12T18:59:11.211Z,2.67
2023-08-12T19:01:38.313Z,2.58
2023-08-12T19:04:06.233Z,2.83
2023-08-12T19:06:33.422Z,2.92
2023-08-12T19:09:00.556Z,3.13
2023-08-12T19:11:27.957Z,3.07
2023-08-12T19:13:54.898Z,2.92
2023-08-12T19:16:22.350Z,3.00
2023-08-12T19:18:49.304Z,3.20
2023-08-12T19:21:16.208Z,2.95
2023-08-12T19:23:43.599Z,3.10
2023-08-12T19:26:10.971Z,2.80
2023-08-12T19:28:38.233Z,3.25
2023-08-12T19:31:05.508Z,2.80
2023-08-12T19:33:32.853Z,3.00
2023-08-12T19:36:00.138Z,2.93
2023-08-12T19:38:27.066Z,3.17
2023-08-12T19:40:55.059Z,3.00
2023-08-12T19:43:22.461Z,3.08
2023-08-12T19:45:50.254Z,3.03
2023-08-12T19:48:17.979Z,2.90
2023-08-12T19:50:47.785Z,3.22
2023-08-12T19:53:14.826Z,3.40
2023-08-12T19:55:42.087Z,2.83
2023-08-12T19:58:09.597Z,2.88
2023-08-12T20:00:36.500Z,2.80
2023-08-12T20:03:03.920Z,3.00
2023-08-12T20:05:32.433Z,2.97
2023-08-12T20:07:59.665Z,3.20
2023-08-12T20:10:27.089Z,3.40
2023-08-12T20:12:56.875Z,3.27
2023-08-12T20:15:24.291Z,3.42
2023-08-12T20:17:51.336Z,7.65
2023-08-12T20:20:18.932Z,3.05
2023-08-12T20:23:03.373Z,3.75
2023-08-12T20:25:32.395Z,2.70
2023-08-12T20:27:59.673Z,3.67
2023-08-12T20:30:27.639Z,3.30
2023-08-12T20:32:55.731Z,3.28
2023-08-12T20:35:23.292Z,3.10
2023-08-12T20:37:51.054Z,3.50
2023-08-12T20:40:19.112Z,3.40
2023-08-12T20:42:46.891Z,3.60
2023-08-12T20:45:14.364Z,3.53
2023-08-12T20:47:42.413Z,3.38
2023-08-12T20:50:09.919Z,3.50
2023-08-12T20:52:37.263Z,3.63
2023-08-12T20:55:04.722Z,3.60
2023-08-12T20:57:31.890Z,4.18
2023-08-12T21:00:01.827Z,3.83
2023-08-12T21:02:30.226Z,3.40
2023-08-12T21:04:57.306Z,3.08
2023-08-12T21:07:24.369Z,3.30
2023-08-12T21:09:51.773Z,3.90
2023-08-12T21:12:18.678Z,4.00
2023-08-12T21:14:45.810Z,3.03
2023-08-12T21:17:12.712Z,3.15
2023-08-12T21:19:40.040Z,3.65
2023-08-12T21:22:07.026Z,3.90
2023-08-12T21:24:34.474Z,3.58
2023-08-12T21:27:01.431Z,3.50
2023-08-12T21:29:28.278Z,3.55
2023-08-12T21:31:55.380Z,4.05
2023-08-12T21:34:22.295Z,3.17
2023-08-12T21:36:49.201Z,3.80
2023-08-12T21:39:16.277Z,3.30
2023-08-12T21:41:43.739Z,3.90
2023-08-12T21:44:11.124Z,3.70
2023-08-12T21:46:38.545Z,3.40
2023-08-12T21:49:05.956Z,4.28
2023-08-12T21:51:33.288Z,4.10
2023-08-12T21:54:00.281Z,3.75
2023-08-12T21:56:27.368Z,4.18
2023-08-12T21:58:54.784Z,3.42
2023-08-12T22:01:21.818Z,4.95
2023-08-12T22:03:49.434Z,3.50
2023-08-12T22:06:17.119Z,3.70
2023-08-12T22:08:44.102Z,4.13
2023-08-12T22:11:11.037Z,4.03
2023-08-12T22:13:37.989Z,3.70
2023-08-12T22:16:05.076Z,4.13
2023-08-12T22:18:32.114Z,3.80
2023-08-12T22:20:59.865Z,4.72
2023-08-12T22:23:26.752Z,4.55
2023-08-12T22:25:54.032Z,5.38
2023-08-12T22:28:21.369Z,5.13
2023-08-12T22:30:49.069Z,4.60
2023-08-12T22:33:16.550Z,4.30
2023-08-12T22:35:43.572Z,3.80
2023-08-12T22:38:10.819Z,4.03
2023-08-12T22:40:38.213Z,3.90
2023-08-12T22:43:05.817Z,4.28
2023-08-12T22:45:39.949Z,3.92
2023-08-12T22:48:07.331Z,3.47
2023-08-12T22:50:34.521Z,3.60
2023-08-12T22:53:01.440Z,4.00
2023-08-12T22:55:28.758Z,3.97
2023-08-12T22:57:55.724Z,4.10
2023-08-12T23:00:23.270Z,3.83
2023-08-12T23:02:50.918Z,4.30
2023-08-12T23:05:17.996Z,4.03
2023-08-12T23:07:45.270Z,3.90
2023-08-12T23:10:12.359Z,4.20
2023-08-12T23:12:39.240Z,3.33
2023-08-12T23:15:07.998Z,3.78
2023-08-12T23:17:35.563Z,3.37
2023-08-12T23:20:04.528Z,3.30
2023-08-12T23:22:31.789Z,3.35
2023-08-12T23:24:59.086Z,3.60
2023-08-12T23:27:26.353Z,3.28
2023-08-12T23:29:53.208Z,3.73
2023-08-12T23:32:20.906Z,4.10
2023-08-12T23:34:48.271Z,3.00
2023-08-12T23:37:15.674Z,3.00
2023-08-12T23:39:42.523Z,3.28
2023-08-12T23:42:09.382Z,2.43
2023-08-12T23:44:36.685Z,2.65
2023-08-12T23:47:03.940Z,3.17
2023-08-12T23:49:30.829Z,3.58
2023-08-12T23:51:58.610Z,3.00
2023-08-12T23:54:25.577Z,3.07
2023-08-12T23:56:52.839Z,2.95
2023-08-12T23:59:20.192Z,3.53
